Time;durP1;ratioP1;P1;durP2;ratioP2;P2;SDS_P1;SDS_P2;PMS_P1;PMS_P2;Temp;Humidity;BMP_temperature;BMP_pressure;BME280_temperature;BME280_humidity;BME280_pressure;Samples;Min_cycle;Max_cycle;Signal;HPM_P1;HPM_P2
2023/04/02 00:10:53;;;;;;;6.55;1.75;;;12.80;90.90;;;;;;4960507;29;20055;-84
2023/04/02 00:13:42;;;;;;;6.68;2.00;;;12.80;90.90;;;;;;4944881;29;20027;-83
2023/04/02 00:16:12;;;;;;;6.70;1.90;;;12.70;90.90;;;;;;4962284;29;20038;-84
2023/04/02 00:18:48;;;;;;;5.50;1.40;;;12.80;90.90;;;;;;4944952;29;20481;-84
2023/04/02 00:21:21;;;;;;;5.45;1.40;;;12.70;90.90;;;;;;4961114;29;20556;-83
2023/04/02 00:23:47;;;;;;;6.15;1.75;;;12.70;90.90;;;;;;4944553;29;20059;-84
2023/04/02 00:26:23;;;;;;;4.93;1.52;;;12.70;90.90;;;;;;4943998;29;20034;-83
2023/04/02 00:28:50;;;;;;;4.30;1.48;;;12.70;90.80;;;;;;4943896;29;20065;-84
2023/04/02 00:31:18;;;;;;;4.35;1.40;;;12.70;90.80;;;;;;4960916;29;20023;-83
2023/04/02 00:33:44;;;;;;;6.15;1.90;;;12.70;90.80;;;;;;4943054;29;20028;-83
2023/04/02 00:36:10;;;;;;;4.35;1.58;;;12.70;90.80;;;;;;4942190;29;20032;-83
2023/04/02 00:38:37;;;;;;;4.90;1.58;;;12.70;90.80;;;;;;4960624;29;20493;-84
2023/04/02 00:41:05;;;;;;;5.82;1.30;;;12.60;90.80;;;;;;4940728;29;20129;-83
2023/04/02 00:43:35;;;;;;;6.75;1.60;;;12.70;90.80;;;;;;4939394;29;20023;-83
2023/04/02 00:46:04;;;;;;;4.78;1.80;;;12.70;90.80;;;;;;4941815;29;20026;-83
2023/04/02 00:48:55;;;;;;;3.75;1.48;;;12.70;90.80;;;;;;4942369;29;20047;-84
2023/04/02 00:51:40;;;;;;;3.63;1.30;;;12.70;90.80;;;;;;4931670;29;20042;-83
2023/04/02 00:54:14;;;;;;;5.05;1.85;;;12.60;90.70;;;;;;4942104;29;20410;-83
2023/04/02 00:56:45;;;;;;;4.20;1.40;;;12.60;90.70;;;;;;4942050;29;20113;-83
2023/04/02 00:59:19;;;;;;;5.32;1.38;;;12.60;90.70;;;;;;4939166;29;20487;-83
2023/04/02 01:01:53;;;;;;;4.70;1.70;;;12.60;90.80;;;;;;4938600;29;20484;-82
2023/04/02 01:04:33;;;;;;;4.00;1.52;;;12.60;90.80;;;;;;4938721;29;20024;-84
2023/04/02 01:07:03;;;;;;;5.28;1.58;;;12.60;90.80;;;;;;4938120;29;20027;-82
2023/04/02 01:10:03;;;;;;;4.25;1.65;;;12.60;90.80;;;;;;4938606;29;20035;-82
2023/04/02 01:13:05;;;;;;;3.33;1.23;;;12.60;90.70;;;;;;4938279;29;20023;-83
2023/04/02 01:15:38;;;;;;;5.60;1.33;;;12.60;90.80;;;;;;4896870;29;20039;-84
2023/04/02 01:18:17;;;;;;;3.50;1.40;;;12.60;90.80;;;;;;4939267;29;20051;-83
2023/04/02 01:21:09;;;;;;;3.90;1.40;;;12.60;90.80;;;;;;4937219;29;20027;-82
2023/04/02 01:23:41;;;;;;;5.68;1.85;;;12.60;90.80;;;;;;4954617;29;20030;-83
2023/04/02 01:26:44;;;;;;;3.88;1.55;;;12.50;90.70;;;;;;4929036;29;20515;-83
2023/04/02 01:29:23;;;;;;;3.13;1.33;;;12.50;90.70;;;;;;4935718;29;20039;-83
2023/04/02 01:31:50;;;;;;;10.07;1.80;;;12.50;90.70;;;;;;4917846;29;20059;-83
2023/04/02 01:34:23;;;;;;;6.05;1.92;;;12.60;90.80;;;;;;4935046;29;20028;-84
2023/04/02 01:37:00;;;;;;;3.17;1.40;;;12.50;90.70;;;;;;4919997;29;20024;-83
2023/04/02 01:39:52;;;;;;;4.80;1.60;;;12.50;90.70;;;;;;4919564;29;20079;-83
2023/04/02 01:42:32;;;;;;;6.53;1.85;;;12.50;90.60;;;;;;4919010;29;20028;-83
2023/04/02 01:45:08;;;;;;;3.97;1.48;;;12.50;90.70;;;;;;4934526;29;20023;-83
2023/04/02 01:47:34;;;;;;;4.57;1.45;;;12.50;90.70;;;;;;4934520;29;20548;-83
2023/04/02 01:50:04;;;;;;;3.42;1.50;;;12.50;90.70;;;;;;4919068;29;20492;-83
2023/04/02 01:52:41;;;;;;;3.38;1.50;;;12.50;90.70;;;;;;4918967;29;20028;-83
2023/04/02 01:55:09;;;;;;;4.40;1.58;;;12.50;90.60;;;;;;4919015;29;20034;-83
2023/04/02 01:57:34;;;;;;;4.47;1.50;;;12.50;90.70;;;;;;4935633;29;20031;-83
2023/04/02 02:00:07;;;;;;;2.88;1.40;;;12.50;90.70;;;;;;4918854;29;20477;-83
2023/04/02 02:02:32;;;;;;;3.08;1.30;;;12.50;90.60;;;;;;4918334;29;20067;-83
2023/04/02 02:04:58;;;;;;;7.72;1.60;;;12.50;90.70;;;;;;4918226;29;20023;-83
2023/04/02 02:07:24;;;;;;;3.67;1.35;;;12.40;90.60;;;;;;4935315;29;20677;-82
2023/04/02 02:09:50;;;;;;;4.55;1.65;;;12.40;90.60;;;;;;4934320;29;20035;-82
2023/04/02 02:12:16;;;;;;;2.97;1.30;;;12.40;90.60;;;;;;4918137;29;20031;-82
2023/04/02 02:14:46;;;;;;;3.67;1.52;;;12.50;90.60;;;;;;4946785;29;20109;-82
2023/04/02 02:17:16;;;;;;;3.67;1.48;;;12.50;90.70;;;;;;4938437;29;20527;-83
2023/04/02 02:19:46;;;;;;;4.35;1.70;;;12.50;90.70;;;;;;4958864;28;20030;-85
2023/04/02 02:22:30;;;;;;;3.78;1.52;;;12.40;90.60;;;;;;4968583;28;20090;-85
2023/04/02 02:24:59;;;;;;;3.92;1.50;;;12.40;90.60;;;;;;4968192;28;20598;-84
2023/04/02 02:27:25;;;;;;;3.47;1.73;;;12.40;90.60;;;;;;4968638;28;20022;-83
2023/04/02 02:30:03;;;;;;;2.70;1.40;;;12.40;90.50;;;;;;4968285;28;20046;-85
2023/04/02 02:32:31;;;;;;;5.95;1.85;;;12.40;90.60;;;;;;4967441;28;20033;-84
2023/04/02 02:35:19;;;;;;;3.30;1.40;;;12.40;90.60;;;;;;4963023;28;20062;-82
2023/04/02 02:37:56;;;;;;;4.60;1.77;;;12.40;90.50;;;;;;4960499;28;20027;-83
2023/04/02 02:40:37;;;;;;;4.53;1.75;;;12.40;90.50;;;;;;4969230;28;20038;-85
2023/04/02 02:43:10;;;;;;;3.58;1.52;;;12.40;90.50;;;;;;4970008;28;20043;-84
2023/04/02 02:45:38;;;;;;;3.70;1.80;;;12.40;90.50;;;;;;4985832;28;20054;-83
2023/04/02 02:48:09;;;;;;;4.82;1.70;;;12.40;90.50;;;;;;4968043;28;20611;-83
2023/04/02 02:50:35;;;;;;;4.10;1.50;;;12.40;90.50;;;;;;4968062;28;20035;-82
2023/04/02 02:53:06;;;;;;;6.10;2.22;;;12.40;90.50;;;;;;4966961;28;20033;-85
2023/04/02 02:55:36;;;;;;;3.35;1.55;;;12.40;90.50;;;;;;4968785;28;20515;-82
2023/04/02 02:58:10;;;;;;;4.13;1.75;;;12.40;90.50;;;;;;4967167;28;20050;-83
2023/04/02 03:00:37;;;;;;;3.22;1.55;;;12.40;90.50;;;;;;4966977;28;20023;-82
2023/04/02 03:03:13;;;;;;;4.18;1.70;;;12.40;90.40;;;;;;4965989;28;20018;-83
2023/04/02 03:05:40;;;;;;;4.47;1.70;;;12.40;90.40;;;;;;4983401;28;20119;-84
2023/04/02 03:08:15;;;;;;;4.55;1.65;;;12.40;90.40;;;;;;4983200;28;20026;-82
2023/04/02 03:10:51;;;;;;;4.28;1.88;;;12.40;90.40;;;;;;4965605;28;20034;-85
2023/04/02 03:13:31;;;;;;;3.97;1.70;;;12.40;90.40;;;;;;4970636;28;20055;-85
2023/04/02 03:16:11;;;;;;;4.47;1.70;;;12.40;90.40;;;;;;4970627;28;20034;-83
2023/04/02 03:18:54;;;;;;;3.63;1.58;;;12.40;90.40;;;;;;4969390;28;20086;-84
2023/04/02 03:21:38;;;;;;;3.88;1.70;;;12.40;90.40;;;;;;4987592;28;20377;-84
2023/04/02 03:24:31;;;;;;;4.28;1.70;;;12.40;90.40;;;;;;4962591;28;20023;-82
2023/04/02 03:27:18;;;;;;;4.15;1.90;;;12.30;90.30;;;;;;4960821;28;20030;-82
2023/04/02 03:30:25;;;;;;;4.80;1.67;;;12.30;90.30;;;;;;4960540;28;20034;-82
2023/04/02 03:32:57;;;;;;;4.03;1.80;;;12.30;90.10;;;;;;4961476;28;20038;-83
2023/04/02 03:35:47;;;;;;;4.97;1.80;;;12.30;90.20;;;;;;4968355;28;20062;-83
2023/04/02 03:38:18;;;;;;;4.35;2.10;;;12.30;90.20;;;;;;4967429;28;20062;-83
2023/04/02 03:41:08;;;;;;;4.10;1.85;;;12.30;90.20;;;;;;4966924;28;20023;-82
2023/04/02 03:43:42;;;;;;;4.23;2.00;;;12.30;90.10;;;;;;4984459;28;20484;-83
2023/04/02 03:46:30;;;;;;;3.67;1.67;;;12.30;90.10;;;;;;4965615;28;20034;-84
2023/04/02 03:49:00;;;;;;;3.95;1.80;;;12.30;90.10;;;;;;4964788;28;20444;-83
2023/04/02 03:51:45;;;;;;;4.63;1.88;;;12.30;90.10;;;;;;4965127;28;20023;-83
2023/04/02 03:54:14;;;;;;;3.88;1.75;;;12.30;90.00;;;;;;4964250;28;20027;-83
2023/04/02 03:56:40;;;;;;;4.65;1.77;;;12.30;90.00;;;;;;4964258;28;20077;-81
2023/04/02 03:59:20;;;;;;;3.92;1.70;;;12.30;90.00;;;;;;4981866;28;20038;-83
2023/04/02 04:01:57;;;;;;;4.38;1.77;;;12.30;90.00;;;;;;4977953;28;20034;-82
2023/04/02 04:04:27;;;;;;;4.28;1.75;;;12.30;90.00;;;;;;4960305;28;20053;-84
2023/04/02 04:06:56;;;;;;;3.50;1.58;;;12.30;89.90;;;;;;4980669;28;20518;-83
2023/04/02 04:09:28;;;;;;;4.10;1.75;;;12.30;89.90;;;;;;4962834;28;20043;-82
2023/04/02 04:12:24;;;;;;;6.03;1.80;;;12.30;89.80;;;;;;4960188;28;20065;-81
2023/04/02 04:14:57;;;;;;;3.90;1.75;;;12.30;89.90;;;;;;4910754;29;20061;-83
2023/04/02 04:17:37;;;;;;;3.83;1.63;;;12.30;89.90;;;;;;4948250;28;20030;-84
2023/04/02 04:20:20;;;;;;;3.93;1.77;;;12.30;89.80;;;;;;4958342;28;20030;-82
2023/04/02 04:22:48;;;;;;;4.88;1.70;;;12.30;89.70;;;;;;4976522;28;20023;-82
2023/04/02 04:25:28;;;;;;;3.85;1.75;;;12.20;89.60;;;;;;4937307;29;20027;-81
2023/04/02 04:28:15;;;;;;;3.65;1.70;;;12.30;90.00;;;;;;4956377;29;20023;-82
2023/04/02 04:30:50;;;;;;;4.25;1.65;;;12.20;89.50;;;;;;4960613;29;20045;-82
2023/04/02 04:33:24;;;;;;;3.80;1.67;;;12.20;89.60;;;;;;4942463;29;20662;-82
2023/04/02 04:36:00;;;;;;;3.42;1.40;;;12.30;89.50;;;;;;4943485;29;20027;-83
2023/04/02 04:38:33;;;;;;;4.35;1.80;;;12.20;89.50;;;;;;4941738;29;20082;-82
2023/04/02 04:41:09;;;;;;;3.70;1.67;;;12.20;89.50;;;;;;4942144;29;20082;-82
2023/04/02 04:43:49;;;;;;;4.63;1.95;;;12.20;89.60;;;;;;4941972;29;20028;-83
2023/04/02 04:46:31;;;;;;;3.88;1.70;;;12.20;89.60;;;;;;4957656;29;20034;-83
2023/04/02 04:49:09;;;;;;;5.38;1.70;;;12.20;89.50;;;;;;4939528;29;20047;-82
2023/04/02 04:51:58;;;;;;;4.40;2.00;;;12.20;89.50;;;;;;4938321;29;20031;-82
2023/04/02 04:54:27;;;;;;;4.10;1.80;;;12.20;89.50;;;;;;4938674;29;20039;-82
2023/04/02 04:57:01;;;;;;;3.55;1.50;;;12.20;89.40;;;;;;4940034;29;20125;-83
2023/04/02 04:59:42;;;;;;;4.28;1.98;;;12.20;89.50;;;;;;4939949;29;20027;-83
2023/04/02 05:02:44;;;;;;;4.10;1.65;;;12.20;89.40;;;;;;4938467;29;20023;-82
2023/04/02 05:05:20;;;;;;;4.38;1.77;;;12.20;89.50;;;;;;4874247;29;20035;-83
2023/04/02 05:07:57;;;;;;;4.50;1.92;;;12.20;89.40;;;;;;4937878;29;20026;-83
2023/04/02 05:10:58;;;;;;;3.72;1.60;;;12.20;89.30;;;;;;4937621;29;20488;-82
2023/04/02 05:13:34;;;;;;;4.85;1.67;;;12.20;89.30;;;;;;4937828;29;20024;-83
2023/04/02 05:16:03;;;;;;;4.03;1.70;;;12.20;89.40;;;;;;4937683;29;20019;-82
2023/04/02 05:18:40;;;;;;;4.50;1.58;;;12.20;89.30;;;;;;4937696;29;20031;-83
2023/04/02 05:21:42;;;;;;;3.30;1.60;;;12.20;89.30;;;;;;4937223;29;20023;-83
2023/04/02 05:24:29;;;;;;;3.63;1.60;;;12.20;89.30;;;;;;4937326;29;20092;-82
2023/04/02 05:27:01;;;;;;;4.10;1.90;;;12.20;89.20;;;;;;4923919;29;20445;-83
2023/04/02 05:29:40;;;;;;;3.72;1.63;;;12.20;89.10;;;;;;4935366;29;20074;-82
2023/04/02 05:32:29;;;;;;;4.13;1.70;;;12.10;89.10;;;;;;4936807;29;20034;-82
2023/04/02 05:34:55;;;;;;;3.70;1.60;;;12.20;89.20;;;;;;4918798;29;20118;-82
2023/04/02 05:37:25;;;;;;;4.32;1.65;;;12.20;89.20;;;;;;4919463;29;20031;-82
2023/04/02 05:39:54;;;;;;;3.85;1.80;;;12.20;89.20;;;;;;4918914;29;20114;-81
2023/04/02 05:42:26;;;;;;;3.28;1.50;;;12.20;89.20;;;;;;4918132;29;20059;-82
2023/04/02 05:45:07;;;;;;;3.67;1.70;;;12.20;89.00;;;;;;4916258;29;20069;-79
2023/04/02 05:47:34;;;;;;;3.47;1.50;;;12.20;89.00;;;;;;4916244;28;20045;-79
2023/04/02 05:50:04;;;;;;;3.22;1.50;;;12.20;89.10;;;;;;4935918;29;20035;-78
2023/04/02 05:52:44;;;;;;;3.55;1.50;;;12.10;88.80;;;;;;4938252;29;20086;-79
2023/04/02 05:55:10;;;;;;;3.47;1.60;;;12.20;88.90;;;;;;4934841;29;20031;-80
2023/04/02 06:24:05;;;;;;;4.13;1.98;;;12.10;88.60;;;;;;4875364;29;20029;-79
2023/04/02 06:26:35;;;;;;;3.08;1.30;;;12.10;88.60;;;;;;4882680;29;20036;-77
2023/04/02 06:29:27;;;;;;;2.60;1.20;;;12.10;88.60;;;;;;4914747;29;20035;-78
2023/04/02 06:32:00;;;;;;;3.03;1.55;;;12.10;88.40;;;;;;4906812;29;20054;-80
2023/04/02 06:34:28;;;;;;;4.65;1.67;;;12.10;88.50;;;;;;4931844;29;20024;-78
2023/04/02 06:36:56;;;;;;;2.80;1.38;;;12.20;88.50;;;;;;4915015;29;20030;-79
2023/04/02 06:39:24;;;;;;;2.83;1.40;;;12.10;88.40;;;;;;4944434;23;20055;-85
2023/04/02 06:42:01;;;;;;;2.50;1.40;;;12.10;88.30;;;;;;4930288;29;20034;-84
2023/04/02 06:44:34;;;;;;;3.10;1.30;;;12.10;88.30;;;;;;4931703;29;20031;-80
2023/04/02 06:47:16;;;;;;;3.05;1.40;;;12.10;88.20;;;;;;4934580;29;20042;-81
2023/04/02 06:49:44;;;;;;;4.38;1.52;;;12.20;88.30;;;;;;5014382;23;20130;-81
2023/04/02 06:52:21;;;;;;;3.40;1.50;;;12.10;88.30;;;;;;4934137;29;20031;-83
2023/04/02 06:54:47;;;;;;;3.22;1.40;;;12.10;88.10;;;;;;4951883;29;20507;-83
2023/04/02 06:57:16;;;;;;;3.33;1.45;;;12.20;88.30;;;;;;4934836;29;20035;-82
2023/04/02 07:27:05;;;;;;;3.08;1.45;;;12.10;87.60;;;;;;4951708;28;20056;-79
2023/04/02 12:44:03;;;;;;;5.82;1.90;;;13.20;85.10;;;;;;4935028;29;20122;-84
2023/04/02 12:46:31;;;;;;;6.13;2.20;;;13.20;85.20;;;;;;4919251;29;20138;-84
2023/04/02 12:49:05;;;;;;;4.65;1.75;;;13.20;85.20;;;;;;4935180;29;20114;-83
2023/04/02 12:51:32;;;;;;;5.40;1.60;;;13.20;85.10;;;;;;4932272;29;20035;-86
2023/04/02 12:53:58;;;;;;;5.13;2.00;;;13.20;85.70;;;;;;4933686;29;20476;-85
2023/04/02 12:56:23;;;;;;;5.35;1.73;;;13.20;85.50;;;;;;4933162;29;20055;-84
2023/04/02 12:58:54;;;;;;;4.95;1.65;;;13.30;85.70;;;;;;4933161;29;20032;-85
2023/04/02 13:01:23;;;;;;;4.05;1.55;;;13.20;85.60;;;;;;4932689;29;20028;-85
2023/04/02 13:04:15;;;;;;;4.20;1.65;;;13.20;85.50;;;;;;4932459;29;20463;-84
2023/04/02 13:06:48;;;;;;;3.95;1.80;;;13.20;85.20;;;;;;4929754;29;20055;-85
2023/04/02 13:09:50;;;;;;;4.43;1.83;;;13.20;85.40;;;;;;4931885;29;20035;-85
2023/04/02 13:12:35;;;;;;;5.20;1.88;;;13.20;85.60;;;;;;4938077;29;20036;-84
2023/04/02 13:15:04;;;;;;;4.65;1.65;;;13.20;85.60;;;;;;4930579;29;20059;-84
2023/04/02 13:17:45;;;;;;;5.72;2.00;;;13.20;85.70;;;;;;4929516;29;20386;-85
2023/04/02 13:20:35;;;;;;;3.78;1.50;;;13.10;85.70;;;;;;4929416;29;20032;-85
2023/04/02 13:23:31;;;;;;;5.20;1.70;;;13.20;85.70;;;;;;4927785;29;20083;-85
2023/04/02 13:26:27;;;;;;;5.22;2.22;;;13.20;85.70;;;;;;4927922;29;20016;-84
2023/04/02 13:29:01;;;;;;;5.28;1.50;;;13.20;85.80;;;;;;4922483;29;20070;-84
2023/04/02 13:31:28;;;;;;;4.75;1.60;;;13.20;86.10;;;;;;4926761;29;20094;-83
2023/04/02 13:33:54;;;;;;;5.28;1.70;;;13.20;85.80;;;;;;4926603;29;20095;-84
2023/04/02 13:36:19;;;;;;;6.35;1.95;;;13.20;85.80;;;;;;4926751;29;20104;-83
2023/04/02 13:38:45;;;;;;;3.30;1.48;;;13.10;85.70;;;;;;4925639;29;20027;-84
2023/04/02 13:41:23;;;;;;;4.20;1.80;;;13.10;85.40;;;;;;4946105;29;20024;-86
2023/04/02 13:44:00;;;;;;;4.03;1.50;;;13.20;85.30;;;;;;4933016;29;20051;-86
2023/04/02 13:46:32;;;;;;;4.00;1.70;;;13.10;85.70;;;;;;4932963;29;20027;-86
2023/04/02 13:48:57;;;;;;;3.75;1.45;;;13.10;85.80;;;;;;4932292;29;20024;-86
2023/04/02 13:51:34;;;;;;;3.30;1.42;;;13.00;85.60;;;;;;4930757;29;20373;-84
2023/04/02 13:54:00;;;;;;;4.50;1.77;;;13.10;85.90;;;;;;4931445;29;20028;-85
2023/04/02 13:56:25;;;;;;;5.07;1.58;;;13.20;85.90;;;;;;4930759;29;20046;-83
2023/04/02 13:58:51;;;;;;;5.38;1.63;;;13.10;85.90;;;;;;4944769;29;20028;-84
2023/04/02 14:01:19;;;;;;;3.65;1.50;;;13.10;85.80;;;;;;4917460;29;20027;-84
2023/04/02 14:03:45;;;;;;;4.07;1.55;;;13.10;85.50;;;;;;4919914;29;20229;-83
2023/04/02 14:06:36;;;;;;;3.03;1.38;;;13.10;85.70;;;;;;4923763;29;20024;-84
2023/04/02 14:09:03;;;;;;;;;;;13.10;85.60;;;;;;4922954;29;20023;-85
2023/04/02 14:11:28;;;;;;;3.78;1.45;;;13.10;85.80;;;;;;4927183;29;19910;-84
2023/04/02 14:14:19;;;;;;;4.03;1.60;;;13.00;85.90;;;;;;4927734;29;20051;-85
2023/04/02 14:17:23;;;;;;;5.60;1.70;;;13.10;86.00;;;;;;4926822;29;20028;-84
2023/04/02 14:20:07;;;;;;;4.18;1.40;;;13.00;85.80;;;;;;4927128;29;20023;-85
2023/04/02 14:22:59;;;;;;;3.20;1.60;;;13.00;85.90;;;;;;4925918;29;20028;-84
2023/04/02 14:25:44;;;;;;;4.25;1.40;;;13.00;85.70;;;;;;4925600;29;20393;-84
2023/04/02 14:28:21;;;;;;;3.78;1.40;;;13.00;86.10;;;;;;4942938;29;20028;-85
2023/04/02 14:31:07;;;;;;;3.88;1.40;;;13.00;85.90;;;;;;4936165;29;20086;-83
2023/04/02 14:33:39;;;;;;;3.15;1.35;;;13.00;85.90;;;;;;4937691;29;20027;-84
2023/04/02 14:36:34;;;;;;;3.60;1.40;;;13.00;85.90;;;;;;4944184;29;20024;-85
2023/04/02 14:39:11;;;;;;;3.65;1.33;;;13.00;85.60;;;;;;4921381;29;20036;-84
2023/04/02 14:41:47;;;;;;;3.83;1.35;;;13.00;85.60;;;;;;4922428;29;20028;-84
2023/04/02 14:44:12;;;;;;;4.03;1.80;;;13.00;85.70;;;;;;4924187;29;20035;-84
2023/04/02 14:46:38;;;;;;;3.63;1.65;;;13.00;85.70;;;;;;4922004;29;20569;-83
2023/04/02 14:49:24;;;;;;;3.70;1.40;;;12.90;85.70;;;;;;4926837;29;20064;-84
2023/04/02 14:52:01;;;;;;;4.40;1.50;;;12.90;85.60;;;;;;4925963;29;20024;-85
2023/04/02 14:54:44;;;;;;;4.00;1.45;;;12.90;85.50;;;;;;4923383;29;20179;-84
2023/04/02 14:57:28;;;;;;;3.45;1.30;;;12.90;85.80;;;;;;4922251;29;20504;-84
2023/04/02 15:00:32;;;;;;;3.95;1.30;;;12.90;85.70;;;;;;4931966;29;20090;-85
2023/04/02 15:03:16;;;;;;;3.40;1.30;;;12.90;85.60;;;;;;4927948;29;20019;-84
2023/04/02 15:05:46;;;;;;;3.42;1.60;;;12.90;85.80;;;;;;4922289;29;20071;-83
2023/04/02 15:08:23;;;;;;;4.20;1.60;;;12.90;85.70;;;;;;4922347;29;20079;-83
2023/04/02 15:11:10;;;;;;;2.33;1.25;;;12.90;85.70;;;;;;4921413;29;20577;-82
2023/04/02 15:13:37;;;;;;;3.70;1.58;;;12.90;86.30;;;;;;4921849;29;20023;-80
2023/04/02 15:16:18;;;;;;;3.38;1.35;;;12.90;85.50;;;;;;4938461;29;20031;-80
2023/04/02 15:18:43;;;;;;;4.13;1.33;;;12.90;85.50;;;;;;4940603;29;20389;-80
2023/04/02 15:21:18;;;;;;;4.13;1.42;;;12.90;85.80;;;;;;4923614;29;20038;-83
2023/04/02 15:24:12;;;;;;;2.72;1.10;;;12.90;85.50;;;;;;4938089;29;20051;-84
2023/04/02 15:27:00;;;;;;;5.45;1.50;;;12.80;84.80;;;;;;4922128;29;20031;-85
2023/04/02 15:29:48;;;;;;;6.35;1.55;;;12.80;83.70;;;;;;4920663;29;20449;-83
2023/04/02 15:32:34;;;;;;;11.35;2.10;;;12.80;83.10;;;;;;4920801;29;20032;-83
2023/04/02 15:35:18;;;;;;;49.50;5.15;;;12.80;82.10;;;;;;4920822;29;20107;-84
2023/04/02 15:38:02;;;;;;;42.75;4.68;;;12.70;75.70;;;;;;4920366;29;20091;-82
2023/04/02 15:40:31;;;;;;;49.50;5.57;;;12.70;78.00;;;;;;4920240;29;20027;-84
2023/04/02 15:43:18;;;;;;;37.53;4.65;;;12.70;77.00;;;;;;4920384;29;20027;-83
2023/04/02 15:46:04;;;;;;;49.30;5.57;;;12.70;77.60;;;;;;4920302;29;20111;-84
2023/04/02 15:48:46;;;;;;;61.25;6.00;;;12.70;77.70;;;;;;4921231;29;20437;-85
2023/04/02 15:51:11;;;;;;;41.95;4.60;;;12.70;78.40;;;;;;4920290;29;20485;-85
2023/04/02 15:53:47;;;;;;;37.78;4.70;;;12.70;78.40;;;;;;4920503;29;20051;-83
2023/04/02 15:56:25;;;;;;;30.35;3.72;;;12.70;79.20;;;;;;4920772;29;20381;-84
2023/04/02 15:59:09;;;;;;;25.77;3.67;;;12.70;78.60;;;;;;4920882;29;20449;-80
2023/04/02 16:01:49;;;;;;;34.17;4.05;;;12.70;78.50;;;;;;4921288;29;20028;-85
2023/04/02 16:04:52;;;;;;;37.83;4.43;;;12.70;79.60;;;;;;4920812;29;20444;-85
2023/04/02 16:07:47;;;;;;;30.88;3.65;;;12.70;79.70;;;;;;4917000;29;20032;-83
2023/04/02 16:10:32;;;;;;;22.35;3.45;;;12.70;80.20;;;;;;4923408;29;20126;-84
2023/04/02 16:12:58;;;;;;;22.73;3.80;;;12.70;80.50;;;;;;4944708;29;20119;-85
2023/04/02 16:15:35;;;;;;;25.35;3.90;;;12.70;80.70;;;;;;4954271;29;20031;-85
2023/04/02 16:18:06;;;;;;;24.35;3.92;;;12.70;80.90;;;;;;4929254;29;20050;-86
2023/04/02 16:20:36;;;;;;;;;;;12.70;81.30;;;;;;4926452;29;20038;-86
2023/04/02 16:23:10;;;;;;;23.48;3.03;;;12.70;81.40;;;;;;4925973;29;19918;-86
2023/04/02 16:25:44;;;;;;;23.48;2.92;;;12.70;81.50;;;;;;4944573;29;20035;-87
2023/04/02 16:28:28;;;;;;;25.98;4.28;;;12.70;82.10;;;;;;4923657;29;20028;-86
2023/04/02 16:31:21;;;;;;;29.45;3.50;;;12.70;82.00;;;;;;4921083;29;20024;-85
2023/04/02 16:34:20;;;;;;;23.08;2.88;;;12.60;82.10;;;;;;4939235;29;20087;-86
2023/04/02 16:36:59;;;;;;;22.30;3.08;;;12.60;79.80;;;;;;4936991;29;20042;-83
2023/04/02 16:39:50;;;;;;;22.52;2.60;;;12.60;81.10;;;;;;4923283;29;20126;-82
2023/04/02 16:42:46;;;;;;;23.98;3.22;;;12.60;81.30;;;;;;4937516;29;20032;-86
2023/04/02 16:45:37;;;;;;;18.63;2.90;;;12.60;81.40;;;;;;4922679;29;20027;-84
2023/04/02 16:48:07;;;;;;;;;;;12.60;81.20;;;;;;4940477;29;20027;-85
2023/04/02 16:50:53;;;;;;;20.25;2.80;;;12.60;81.40;;;;;;4922576;29;19958;-86
2023/04/02 16:53:28;;;;;;;14.43;2.45;;;12.60;82.00;;;;;;4939226;29;20035;-84
2023/04/02 16:56:16;;;;;;;16.83;2.85;;;12.60;82.20;;;;;;4938728;29;20039;-82
2023/04/02 16:59:02;;;;;;;16.50;2.63;;;12.60;81.70;;;;;;4920799;29;20405;-80
2023/04/02 17:02:04;;;;;;;23.08;3.05;;;12.60;81.90;;;;;;4938867;29;20044;-79
2023/04/02 17:04:47;;;;;;;14.25;2.55;;;12.60;82.00;;;;;;4932127;29;20102;-79
2023/04/02 17:07:24;;;;;;;10.73;1.95;;;12.60;82.00;;;;;;4920731;29;20405;-82
2023/04/02 17:09:52;;;;;;;18.92;2.50;;;12.60;82.20;;;;;;4939915;29;20023;-81
2023/04/02 17:12:21;;;;;;;11.05;2.00;;;12.60;82.20;;;;;;4918423;29;20067;-83
2023/04/02 17:14:52;;;;;;;15.32;1.83;;;12.60;82.20;;;;;;4922344;29;20028;-82
2023/04/02 17:17:20;;;;;;;12.23;1.98;;;12.60;82.20;;;;;;4926156;29;20520;-81
2023/04/02 17:19:47;;;;;;;9.65;2.38;;;12.60;82.30;;;;;;4925189;29;20050;-81
2023/04/02 17:22:20;;;;;;;11.90;1.80;;;12.60;82.30;;;;;;4939800;29;20028;-82
2023/04/02 17:25:03;;;;;;;10.15;1.77;;;12.60;82.50;;;;;;4921228;29;20028;-81
2023/04/02 17:27:41;;;;;;;7.57;1.52;;;12.50;82.20;;;;;;4922702;29;20024;-82
2023/04/02 17:30:38;;;;;;;8.80;1.65;;;12.50;82.30;;;;;;4937148;29;20059;-81
2023/04/02 17:33:14;;;;;;;9.93;1.77;;;12.50;82.30;;;;;;4921549;29;20404;-82
2023/04/02 17:35:45;;;;;;;8.30;1.65;;;12.50;82.30;;;;;;4920744;29;20122;-82
2023/04/02 17:38:43;;;;;;;8.30;1.42;;;12.50;82.60;;;;;;4920925;29;20031;-83
2023/04/02 17:41:35;;;;;;;6.53;1.63;;;12.50;83.10;;;;;;4851835;29;20496;-82
2023/04/02 17:44:14;;;;;;;4.97;1.52;;;12.50;82.40;;;;;;4901584;29;20028;-82
2023/04/02 17:46:47;;;;;;;6.57;1.40;;;12.50;82.50;;;;;;4917065;29;20020;-83
2023/04/02 17:49:51;;;;;;;12.45;1.70;;;12.50;82.50;;;;;;4915443;29;20028;-82
2023/04/02 17:52:52;;;;;;;11.82;1.70;;;12.50;83.00;;;;;;4920053;29;20028;-82
2023/04/02 17:55:39;;;;;;;9.32;1.83;;;12.50;83.00;;;;;;4918464;29;20035;-81
2023/04/02 17:58:23;;;;;;;8.60;1.75;;;12.50;83.00;;;;;;4919565;29;20787;-82
2023/04/02 18:01:13;;;;;;;7.63;1.73;;;12.50;83.40;;;;;;4936268;29;20027;-82
2023/04/02 18:03:48;;;;;;;7.63;1.48;;;12.50;83.20;;;;;;4917926;29;20035;-82
2023/04/02 18:06:30;;;;;;;7.10;1.80;;;12.40;83.00;;;;;;4936211;29;20075;-83
2023/04/02 18:09:14;;;;;;;7.93;1.60;;;12.50;83.10;;;;;;4919202;29;20031;-83
2023/04/02 18:12:01;;;;;;;7.60;1.60;;;12.50;83.50;;;;;;4935962;29;20079;-81
2023/04/02 18:14:39;;;;;;;7.78;1.48;;;12.40;83.60;;;;;;4934391;29;20028;-83
2023/04/02 18:17:26;;;;;;;5.45;1.50;;;12.40;83.10;;;;;;4918307;29;20030;-84
2023/04/02 18:20:04;;;;;;;11.63;1.88;;;12.40;83.10;;;;;;4933806;29;20489;-83
2023/04/02 18:22:42;;;;;;;9.40;1.50;;;12.40;83.80;;;;;;4934109;29;20527;-83
2023/04/02 18:25:34;;;;;;;4.20;1.35;;;12.40;83.60;;;;;;4918437;29;20119;-83
2023/04/02 18:28:10;;;;;;;5.53;1.20;;;12.40;83.50;;;;;;4918486;29;20034;-82
2023/04/02 18:30:45;;;;;;;6.68;1.60;;;12.40;83.40;;;;;;4934829;29;20054;-82
2023/04/02 18:33:44;;;;;;;5.80;1.30;;;12.40;83.10;;;;;;4918513;29;20050;-82
2023/04/02 18:36:21;;;;;;;5.57;1.60;;;12.40;83.20;;;;;;4933988;29;20028;-82
2023/04/02 18:39:02;;;;;;;6.40;1.20;;;12.40;83.50;;;;;;4917940;29;20086;-79
2023/04/02 18:41:36;;;;;;;4.95;1.48;;;12.40;83.20;;;;;;4919053;29;20024;-80
2023/04/02 18:44:53;;;;;;;6.97;1.40;;;12.40;83.70;;;;;;4934871;29;20035;-81
2023/04/02 18:47:25;;;;;;;7.68;1.45;;;12.40;83.60;;;;;;4894918;29;20079;-82
2023/04/02 18:50:14;;;;;;;8.88;1.35;;;12.40;83.30;;;;;;4917570;29;20074;-80
2023/04/02 18:52:41;;;;;;;5.50;1.20;;;12.40;82.50;;;;;;4916591;29;20027;-83
2023/04/02 18:55:21;;;;;;;6.05;1.23;;;12.40;82.40;;;;;;4917632;29;20032;-82
2023/04/02 18:57:51;;;;;;;5.60;1.20;;;12.40;82.20;;;;;;4917733;29;20203;-81
2023/04/02 19:00:29;;;;;;;6.60;1.25;;;12.40;82.60;;;;;;4934583;29;20040;-81
2023/04/02 19:03:27;;;;;;;5.20;1.23;;;12.40;82.30;;;;;;4935059;29;20043;-82
2023/04/02 19:05:57;;;;;;;4.68;0.90;;;12.40;82.20;;;;;;4910260;29;20044;-82
2023/04/02 19:08:34;;;;;;;3.60;1.10;;;12.40;82.20;;;;;;4935142;29;20095;-80
2023/04/02 19:11:05;;;;;;;5.43;1.20;;;12.40;82.20;;;;;;4917569;29;20043;-82
2023/04/02 19:13:30;;;;;;;4.55;1.15;;;12.40;82.30;;;;;;4916561;29;20020;-81
2023/04/02 19:16:15;;;;;;;3.83;1.13;;;12.40;82.30;;;;;;4917551;29;20032;-82
2023/04/02 19:18:40;;;;;;;2.88;0.90;;;12.40;82.10;;;;;;4934704;29;20111;-81
2023/04/02 19:21:21;;;;;;;4.97;1.30;;;12.40;82.20;;;;;;4921277;29;20160;-80
2023/04/02 19:24:25;;;;;;;2.92;1.20;;;12.30;82.00;;;;;;4921000;29;20028;-81
2023/04/02 19:27:00;;;;;;;4.38;1.00;;;12.40;81.80;;;;;;4921264;29;20049;-81
2023/04/02 19:29:50;;;;;;;3.95;1.00;;;12.40;81.80;;;;;;4936933;29;20398;-82
2023/04/02 19:32:22;;;;;;;3.50;1.10;;;12.40;81.80;;;;;;4921193;29;20034;-81
2023/04/02 19:34:51;;;;;;;4.03;1.08;;;12.30;81.90;;;;;;4933582;29;20393;-83
2023/04/02 19:37:50;;;;;;;4.07;1.20;;;12.40;82.00;;;;;;4924689;29;20373;-83
2023/04/02 19:40:36;;;;;;;3.80;1.10;;;12.30;81.60;;;;;;4923681;29;20028;-81
2023/04/02 19:43:02;;;;;;;3.83;1.10;;;12.40;82.00;;;;;;4924020;29;20036;-82
2023/04/02 19:45:28;;;;;;;2.40;0.90;;;12.30;81.80;;;;;;4923618;29;20028;-82
2023/04/02 19:47:55;;;;;;;3.65;1.00;;;12.30;81.80;;;;;;4950825;29;20027;-82
2023/04/02 19:50:21;;;;;;;2.50;0.90;;;12.30;81.80;;;;;;4942292;29;20130;-82
2023/04/02 19:52:46;;;;;;;3.53;1.02;;;12.30;82.20;;;;;;4942133;29;20059;-81
2023/04/02 19:55:12;;;;;;;3.35;1.05;;;12.30;82.10;;;;;;4938008;29;20082;-81
2023/04/02 19:57:37;;;;;;;3.63;1.20;;;12.30;82.00;;;;;;4923285;29;20404;-85